Buford, Wyoming
Current Conditions -  °F | °C
As of 4:56 PM on Wednesday 26 Nov 2014 (Local Time) from KFEW Reporting Station
Broken Clouds Broken Clouds  
Wind Chill: 25°   Ceiling: 10000
Heat Index: 33°   Visibility: 10mi
Dew Point: 26°   Wind: 8mph
Humidity: 77%   Direction: 200°SSW
Pressure: 30.13"   Gusts: NA
Location:  41.12°N, 105.31°W
Report Text: KFEW 262356Z AUTO 20007KT 10SM FEW070 FEW080 BKN100 00/M03 A3013 RMK AO2 SLP245 60002 T00031033 10032 21038 52014
Loading
Personal Weather Stations






























Interactive Weather Map New forecast layout! Learn more

10-Day Weather Forecast

Advertisements
Track Severe Weather on mobile